sensor_id;sensor_type;location;lat;lon;timestamp;pressure;altitude;pressure_sealevel;temperature;humidity
75317;BME280;63913;51.492;10.368;2023-03-15T00:01:56;97780.34;;;1.67;71.60
75317;BME280;63913;51.492;10.368;2023-03-15T00:04:21;97785.94;;;1.60;72.03
75317;BME280;63913;51.492;10.368;2023-03-15T00:06:49;97790.13;;;1.59;72.41
75317;BME280;63913;51.492;10.368;2023-03-15T00:09:14;97794.34;;;1.59;72.66
75317;BME280;63913;51.492;10.368;2023-03-15T00:11:39;97796.94;;;1.60;72.85
75317;BME280;63913;51.492;10.368;2023-03-15T00:14:05;97792.88;;;1.64;70.25
75317;BME280;63913;51.492;10.368;2023-03-15T00:16:30;97792.88;;;1.64;70.04
75317;BME280;63913;51.492;10.368;2023-03-15T00:18:57;97801.69;;;1.72;69.68
75317;BME280;63913;51.492;10.368;2023-03-15T00:21:22;97802.56;;;1.72;68.58
75317;BME280;63913;51.492;10.368;2023-03-15T00:23:48;97796.69;;;1.73;69.05
75317;BME280;63913;51.492;10.368;2023-03-15T00:26:13;97798.50;;;1.76;69.61
75317;BME280;63913;51.492;10.368;2023-03-15T00:28:39;97798.09;;;1.67;69.22
75317;BME280;63913;51.492;10.368;2023-03-15T00:31:16;97802.09;;;1.62;69.73
75317;BME280;63913;51.492;10.368;2023-03-15T00:33:43;97796.34;;;1.66;70.06
75317;BME280;63913;51.492;10.368;2023-03-15T00:36:10;97800.44;;;1.62;68.49
75317;BME280;63913;51.492;10.368;2023-03-15T00:38:38;97807.19;;;1.63;68.88
75317;BME280;63913;51.492;10.368;2023-03-15T00:41:09;97809.81;;;1.65;68.79
75317;BME280;63913;51.492;10.368;2023-03-15T00:43:35;97812.59;;;1.71;68.90
75317;BME280;63913;51.492;10.368;2023-03-15T00:46:01;97810.31;;;1.75;68.42
75317;BME280;63913;51.492;10.368;2023-03-15T00:48:27;97814.59;;;1.59;68.80
75317;BME280;63913;51.492;10.368;2023-03-15T00:51:10;97812.72;;;1.54;69.69
75317;BME280;63913;51.492;10.368;2023-03-15T00:53:37;97818.09;;;1.43;69.08
75317;BME280;63913;51.492;10.368;2023-03-15T00:56:05;97820.97;;;1.50;68.86
75317;BME280;63913;51.492;10.368;2023-03-15T00:58:30;97820.19;;;1.51;69.36
75317;BME280;63913;51.492;10.368;2023-03-15T01:00:56;97834.44;;;1.49;68.62
75317;BME280;63913;51.492;10.368;2023-03-15T01:03:21;97835.22;;;1.48;69.32
75317;BME280;63913;51.492;10.368;2023-03-15T01:05:46;97832.06;;;1.52;69.71
75317;BME280;63913;51.492;10.368;2023-03-15T01:08:12;97834.59;;;1.52;69.49
75317;BME280;63913;51.492;10.368;2023-03-15T01:10:37;97831.31;;;1.55;69.31
75317;BME280;63913;51.492;10.368;2023-03-15T01:13:03;97832.94;;;1.53;69.35
75317;BME280;63913;51.492;10.368;2023-03-15T01:15:28;97842.03;;;1.49;70.16
75317;BME280;63913;51.492;10.368;2023-03-15T01:17:55;97840.97;;;1.44;70.35
75317;BME280;63913;51.492;10.368;2023-03-15T01:20:22;97834.69;;;1.36;70.64
75317;BME280;63913;51.492;10.368;2023-03-15T01:22:48;97848.91;;;1.34;70.94
75317;BME280;63913;51.492;10.368;2023-03-15T01:25:13;97845.69;;;1.37;70.97
75317;BME280;63913;51.492;10.368;2023-03-15T01:27:38;97847.34;;;1.36;70.49
75317;BME280;63913;51.492;10.368;2023-03-15T01:30:05;97851.66;;;1.39;70.69
75317;BME280;63913;51.492;10.368;2023-03-15T01:32:31;97851.44;;;1.34;70.51
75317;BME280;63913;51.492;10.368;2023-03-15T01:34:57;97849.50;;;1.29;70.61
75317;BME280;63913;51.492;10.368;2023-03-15T01:37:22;97851.53;;;1.36;70.11
75317;BME280;63913;51.492;10.368;2023-03-15T01:39:49;97855.66;;;1.34;70.52
75317;BME280;63913;51.492;10.368;2023-03-15T01:42:15;97854.94;;;1.36;69.57
75317;BME280;63913;51.492;10.368;2023-03-15T01:44:55;97850.06;;;1.41;69.86
75317;BME280;63913;51.492;10.368;2023-03-15T01:47:22;97849.06;;;1.37;70.52
75317;BME280;63913;51.492;10.368;2023-03-15T01:49:55;97847.41;;;1.38;70.46
75317;BME280;63913;51.492;10.368;2023-03-15T01:52:25;97851.59;;;1.37;71.20
75317;BME280;63913;51.492;10.368;2023-03-15T01:55:04;97847.09;;;1.32;70.20
75317;BME280;63913;51.492;10.368;2023-03-15T01:57:38;97853.53;;;1.25;70.87
75317;BME280;63913;51.492;10.368;2023-03-15T02:00:09;97844.28;;;1.26;70.47
75317;BME280;63913;51.492;10.368;2023-03-15T02:02:57;97849.50;;;1.29;70.47
75317;BME280;63913;51.492;10.368;2023-03-15T02:05:30;97840.25;;;1.29;70.51
75317;BME280;63913;51.492;10.368;2023-03-15T02:07:58;97853.78;;;1.30;70.80
75317;BME280;63913;51.492;10.368;2023-03-15T02:10:47;97857.81;;;1.26;71.28
75317;BME280;63913;51.492;10.368;2023-03-15T02:13:17;97851.09;;;1.27;70.37
75317;BME280;63913;51.492;10.368;2023-03-15T02:15:44;97861.72;;;1.20;71.33
75317;BME280;63913;51.492;10.368;2023-03-15T02:18:19;97858.31;;;1.19;71.41
75317;BME280;63913;51.492;10.368;2023-03-15T02:23:57;97858.16;;;1.16;71.68
75317;BME280;63913;51.492;10.368;2023-03-15T02:26:53;97864.97;;;1.17;71.58
75317;BME280;63913;51.492;10.368;2023-03-15T02:29:18;97865.75;;;1.16;71.32
75317;BME280;63913;51.492;10.368;2023-03-15T02:31:44;97864.75;;;1.12;71.14
75317;BME280;63913;51.492;10.368;2023-03-15T02:34:09;97857.28;;;1.15;71.13
75317;BME280;63913;51.492;10.368;2023-03-15T02:36:35;97857.28;;;1.15;71.75
75317;BME280;63913;51.492;10.368;2023-03-15T02:39:12;97852.22;;;1.15;71.77
75317;BME280;63913;51.492;10.368;2023-03-15T02:41:40;97862.50;;;1.19;70.90
75317;BME280;63913;51.492;10.368;2023-03-15T02:44:37;97862.72;;;1.23;70.80
75317;BME280;63913;51.492;10.368;2023-03-15T02:47:15;97865.03;;;1.19;70.95
75317;BME280;63913;51.492;10.368;2023-03-15T02:49:47;97872.72;;;1.20;71.07
75317;BME280;63913;51.492;10.368;2023-03-15T02:52:14;97875.09;;;1.17;72.08
75317;BME280;63913;51.492;10.368;2023-03-15T02:54:39;97871.69;;;1.17;71.42
75317;BME280;63913;51.492;10.368;2023-03-15T02:57:09;97872.22;;;1.27;70.65
75317;BME280;63913;51.492;10.368;2023-03-15T02:59:35;97869.59;;;1.26;70.90
75317;BME280;63913;51.492;10.368;2023-03-15T03:02:01;97871.63;;;1.33;70.62
75317;BME280;63913;51.492;10.368;2023-03-15T03:04:27;97878.44;;;1.34;69.75
75317;BME280;63913;51.492;10.368;2023-03-15T03:06:52;97881.25;;;1.40;69.99
75317;BME280;63913;51.492;10.368;2023-03-15T03:09:22;97882.28;;;1.43;69.94
75317;BME280;63913;51.492;10.368;2023-03-15T03:11:48;97883.00;;;1.41;69.69
75317;BME280;63913;51.492;10.368;2023-03-15T03:14:13;97888.22;;;1.44;69.27
75317;BME280;63913;51.492;10.368;2023-03-15T03:16:39;97885.53;;;1.41;69.53
75317;BME280;63913;51.492;10.368;2023-03-15T03:19:07;97896.69;;;1.44;69.81
75317;BME280;63913;51.492;10.368;2023-03-15T03:21:33;97897.56;;;1.45;69.60
75317;BME280;63913;51.492;10.368;2023-03-15T03:23:58;97900.44;;;1.35;69.83
75317;BME280;63913;51.492;10.368;2023-03-15T03:26:23;97908.19;;;1.38;69.22
75317;BME280;63913;51.492;10.368;2023-03-15T03:28:53;97907.38;;;1.39;70.00
75317;BME280;63913;51.492;10.368;2023-03-15T03:31:23;97903.41;;;1.44;69.91
75317;BME280;63913;51.492;10.368;2023-03-15T03:33:50;97907.69;;;1.45;70.38
75317;BME280;63913;51.492;10.368;2023-03-15T03:36:16;97913.75;;;1.48;70.63
75317;BME280;63913;51.492;10.368;2023-03-15T03:38:43;97918.19;;;1.52;71.02
75317;BME280;63913;51.492;10.368;2023-03-15T03:41:09;97922.50;;;1.55;70.80
75317;BME280;63913;51.492;10.368;2023-03-15T03:43:36;97927.06;;;1.44;71.02
75317;BME280;63913;51.492;10.368;2023-03-15T03:46:02;97936.41;;;1.45;71.20
75317;BME280;63913;51.492;10.368;2023-03-15T03:48:29;97938.94;;;1.45;72.13
75317;BME280;63913;51.492;10.368;2023-03-15T03:50:55;97949.94;;;1.46;73.30
75317;BME280;63913;51.492;10.368;2023-03-15T03:53:20;97934.75;;;1.46;73.62
75317;BME280;63913;51.492;10.368;2023-03-15T03:55:46;97948.72;;;1.38;74.97
75317;BME280;63913;51.492;10.368;2023-03-15T03:58:16;97950.13;;;1.33;76.40
75317;BME280;63913;51.492;10.368;2023-03-15T04:00:47;97954.34;;;1.16;77.36
75317;BME280;63913;51.492;10.368;2023-03-15T04:03:13;97959.63;;;1.03;78.46
75317;BME280;63913;51.492;10.368;2023-03-15T04:05:43;97962.72;;;0.97;79.79
75317;BME280;63913;51.492;10.368;2023-03-15T04:08:13;97962.72;;;0.81;80.40
75317;BME280;63913;51.492;10.368;2023-03-15T04:10:39;97970.84;;;0.92;81.30
75317;BME280;63913;51.492;10.368;2023-03-15T04:13:04;97957.41;;;0.93;81.97
75317;BME280;63913;51.492;10.368;2023-03-15T04:15:30;97959.94;;;0.93;81.21
75317;BME280;63913;51.492;10.368;2023-03-15T04:17:56;97959.31;;;0.97;82.09
75317;BME280;63913;51.492;10.368;2023-03-15T04:20:26;97955.13;;;0.97;82.45
75317;BME280;63913;51.492;10.368;2023-03-15T04:22:52;97971.31;;;1.01;82.61
75317;BME280;63913;51.492;10.368;2023-03-15T04:25:28;97965.47;;;1.02;83.08
75317;BME280;63913;51.492;10.368;2023-03-15T04:28:04;97967.84;;;0.99;83.04
75317;BME280;63913;51.492;10.368;2023-03-15T04:30:54;97979.63;;;0.98;83.39
75317;BME280;63913;51.492;10.368;2023-03-15T04:33:47;97984.69;;;0.98;83.39
75317;BME280;63913;51.492;10.368;2023-03-15T04:36:33;97983.09;;;1.00;83.61
75317;BME280;63913;51.492;10.368;2023-03-15T04:39:08;97974.81;;;1.03;83.32
75317;BME280;63913;51.492;10.368;2023-03-15T04:41:46;97980.72;;;1.03;82.90
75317;BME280;63913;51.492;10.368;2023-03-15T04:44:23;97975.66;;;1.03;83.17
75317;BME280;63913;51.492;10.368;2023-03-15T04:46:57;97988.16;;;1.00;82.11
75317;BME280;63913;51.492;10.368;2023-03-15T04:49:48;97986.34;;;0.98;82.52
75317;BME280;63913;51.492;10.368;2023-03-15T04:52:43;97977.94;;;0.99;82.52
75317;BME280;63913;51.492;10.368;2023-03-15T04:55:26;97989.19;;;1.04;82.81
75317;BME280;63913;51.492;10.368;2023-03-15T04:58:14;97994.47;;;1.08;80.68
75317;BME280;63913;51.492;10.368;2023-03-15T05:00:52;97984.59;;;1.13;81.04
75317;BME280;63913;51.492;10.368;2023-03-15T05:03:25;97995.66;;;1.15;81.04
75317;BME280;63913;51.492;10.368;2023-03-15T05:05:53;98000.41;;;1.09;79.66
75317;BME280;63913;51.492;10.368;2023-03-15T05:08:31;98005.84;;;1.17;79.92
75317;BME280;63913;51.492;10.368;2023-03-15T05:11:16;98003.41;;;1.18;79.93
75317;BME280;63913;51.492;10.368;2023-03-15T05:14:00;98000.00;;;1.18;80.12
75317;BME280;63913;51.492;10.368;2023-03-15T05:16:34;98005.94;;;1.18;79.73
75317;BME280;63913;51.492;10.368;2023-03-15T05:19:10;98022.00;;;1.19;80.61
75317;BME280;63913;51.492;10.368;2023-03-15T05:21:54;98013.72;;;1.21;80.39
75317;BME280;63913;51.492;10.368;2023-03-15T05:24:39;98013.91;;;1.26;79.89
75317;BME280;63913;51.492;10.368;2023-03-15T05:27:40;98023.44;;;1.30;80.25
75317;BME280;63913;51.492;10.368;2023-03-15T05:30:25;98036.38;;;1.36;80.70
75317;BME280;63913;51.492;10.368;2023-03-15T05:33:06;98034.56;;;1.33;79.42
75317;BME280;63913;51.492;10.368;2023-03-15T05:35:34;98032.28;;;1.38;79.41
75317;BME280;63913;51.492;10.368;2023-03-15T05:38:32;98043.25;;;1.38;78.81
75317;BME280;63913;51.492;10.368;2023-03-15T05:41:07;98056.47;;;1.33;79.07
75317;BME280;63913;51.492;10.368;2023-03-15T05:43:42;98067.41;;;1.32;79.17
75317;BME280;63913;51.492;10.368;2023-03-15T05:46:15;98068.34;;;1.34;79.08
75317;BME280;63913;51.492;10.368;2023-03-15T05:48:56;98066.78;;;1.36;78.74
75317;BME280;63913;51.492;10.368;2023-03-15T05:51:32;98075.31;;;1.38;79.05
75317;BME280;63913;51.492;10.368;2023-03-15T05:54:06;98077.03;;;1.39;79.24
75317;BME280;63913;51.492;10.368;2023-03-15T05:56:52;98081.19;;;1.37;79.79
75317;BME280;63913;51.492;10.368;2023-03-15T05:59:30;98086.28;;;1.38;79.25
75317;BME280;63913;51.492;10.368;2023-03-15T06:02:16;98085.13;;;1.32;79.27
75317;BME280;63913;51.492;10.368;2023-03-15T06:04:57;98087.50;;;1.29;79.34
75317;BME280;63913;51.492;10.368;2023-03-15T06:07:25;98095.50;;;1.36;79.96
75317;BME280;63913;51.492;10.368;2023-03-15T06:09:50;98096.59;;;1.41;80.31
75317;BME280;63913;51.492;10.368;2023-03-15T06:12:16;98103.63;;;1.47;79.75
75317;BME280;63913;51.492;10.368;2023-03-15T06:14:42;98109.56;;;1.47;80.42
75317;BME280;63913;51.492;10.368;2023-03-15T06:17:07;98115.69;;;1.35;80.41
75317;BME280;63913;51.492;10.368;2023-03-15T06:19:33;98113.38;;;1.39;80.94
75317;BME280;63913;51.492;10.368;2023-03-15T06:21:59;98124.44;;;1.41;80.65
75317;BME280;63913;51.492;10.368;2023-03-15T06:24:30;98123.44;;;1.38;80.61
75317;BME280;63913;51.492;10.368;2023-03-15T06:26:56;98124.53;;;1.43;80.83
75317;BME280;63913;51.492;10.368;2023-03-15T06:29:21;98128.72;;;1.42;80.90
75317;BME280;63913;51.492;10.368;2023-03-15T06:31:48;98142.09;;;1.40;80.74
75317;BME280;63913;51.492;10.368;2023-03-15T06:34:14;98151.81;;;1.32;81.33
75317;BME280;63913;51.492;10.368;2023-03-15T06:36:40;98151.13;;;1.35;81.73
75317;BME280;63913;51.492;10.368;2023-03-15T06:39:07;98157.06;;;1.35;81.61
75317;BME280;63913;51.492;10.368;2023-03-15T06:41:32;98159.69;;;1.37;81.91
75317;BME280;63913;51.492;10.368;2023-03-15T06:44:05;98163.78;;;1.35;81.59
75317;BME280;63913;51.492;10.368;2023-03-15T06:46:31;98161.09;;;1.32;81.88
75317;BME280;63913;51.492;10.368;2023-03-15T06:48:57;98163.72;;;1.33;81.83
75317;BME280;63913;51.492;10.368;2023-03-15T06:51:24;98169.72;;;1.35;82.76
75317;BME280;63913;51.492;10.368;2023-03-15T06:53:50;98174.31;;;1.42;82.42
75317;BME280;63913;51.492;10.368;2023-03-15T06:56:15;98179.16;;;1.38;82.30
75317;BME280;63913;51.492;10.368;2023-03-15T06:58:40;98179.16;;;1.38;82.39
75317;BME280;63913;51.492;10.368;2023-03-15T07:01:06;98180.25;;;1.43;82.46
75317;BME280;63913;51.492;10.368;2023-03-15T07:03:31;98175.19;;;1.43;82.66
75317;BME280;63913;51.492;10.368;2023-03-15T07:05:57;98175.81;;;1.39;82.52
75317;BME280;63913;51.492;10.368;2023-03-15T07:08:24;98190.31;;;1.41;82.66
75317;BME280;63913;51.492;10.368;2023-03-15T07:10:50;98191.97;;;1.41;82.28
75317;BME280;63913;51.492;10.368;2023-03-15T07:13:16;98187.22;;;1.47;82.25
75317;BME280;63913;51.492;10.368;2023-03-15T07:15:41;98191.72;;;1.36;82.32
75317;BME280;63913;51.492;10.368;2023-03-15T07:18:07;98196.41;;;1.45;82.63
75317;BME280;63913;51.492;10.368;2023-03-15T07:20:32;98197.28;;;1.45;82.51
75317;BME280;63913;51.492;10.368;2023-03-15T07:22:58;98202.41;;;1.47;82.25
75317;BME280;63913;51.492;10.368;2023-03-15T07:25:23;98201.53;;;1.46;82.32
75317;BME280;63913;51.492;10.368;2023-03-15T07:27:50;98209.00;;;1.43;82.46
75317;BME280;63913;51.492;10.368;2023-03-15T07:30:16;98211.59;;;1.45;82.14
75317;BME280;63913;51.492;10.368;2023-03-15T07:32:42;98210.06;;;1.32;82.49
75317;BME280;63913;51.492;10.368;2023-03-15T07:35:08;98221.16;;;1.34;83.05
75317;BME280;63913;51.492;10.368;2023-03-15T07:37:33;98218.47;;;1.31;83.05
75317;BME280;63913;51.492;10.368;2023-03-15T07:39:58;98226.94;;;1.32;83.25
75317;BME280;63913;51.492;10.368;2023-03-15T07:42:36;98228.66;;;1.33;83.92
75317;BME280;63913;51.492;10.368;2023-03-15T07:45:03;98233.66;;;1.31;83.78
75317;BME280;63913;51.492;10.368;2023-03-15T07:47:29;98248.16;;;1.34;83.67
75317;BME280;63913;51.492;10.368;2023-03-15T07:49:55;98243.16;;;1.35;83.31
75317;BME280;63913;51.492;10.368;2023-03-15T07:52:21;98246.81;;;1.40;83.44
75317;BME280;63913;51.492;10.368;2023-03-15T07:54:47;98240.16;;;1.42;83.75
75317;BME280;63913;51.492;10.368;2023-03-15T07:57:12;98243.97;;;1.50;83.74
75317;BME280;63913;51.492;10.368;2023-03-15T07:59:37;98240.81;;;1.54;83.40
75317;BME280;63913;51.492;10.368;2023-03-15T08:02:03;98248.97;;;1.65;83.53
75317;BME280;63913;51.492;10.368;2023-03-15T08:04:29;98244.78;;;1.66;83.54
75317;BME280;63913;51.492;10.368;2023-03-15T08:06:54;98244.88;;;1.67;83.13
75317;BME280;63913;51.492;10.368;2023-03-15T08:09:19;98244.00;;;1.67;82.38
75317;BME280;63913;51.492;10.368;2023-03-15T08:11:45;98241.16;;;1.61;82.00
75317;BME280;63913;51.492;10.368;2023-03-15T08:14:10;98244.09;;;1.68;81.76
75317;BME280;63913;51.492;10.368;2023-03-15T08:16:35;98248.28;;;1.68;80.93
75317;BME280;63913;51.492;10.368;2023-03-15T08:19:01;98241.06;;;1.75;81.67
75317;BME280;63913;51.492;10.368;2023-03-15T08:21:26;98241.78;;;1.73;80.75
75317;BME280;63913;51.492;10.368;2023-03-15T08:23:51;98248.28;;;1.84;80.02
75317;BME280;63913;51.492;10.368;2023-03-15T08:26:17;98243.81;;;1.96;79.27
75317;BME280;63913;51.492;10.368;2023-03-15T08:28:42;98248.91;;;1.96;77.81
75317;BME280;63913;51.492;10.368;2023-03-15T08:31:08;98244.16;;;2.02;77.89
75317;BME280;63913;51.492;10.368;2023-03-15T08:33:33;98251.03;;;2.05;77.25
75317;BME280;63913;51.492;10.368;2023-03-15T08:35:59;98271.41;;;2.06;76.39
75317;BME280;63913;51.492;10.368;2023-03-15T08:38:25;98257.94;;;2.07;76.62
75317;BME280;63913;51.492;10.368;2023-03-15T08:40:57;98265.63;;;2.09;77.42
75317;BME280;63913;51.492;10.368;2023-03-15T08:43:23;98270.91;;;2.13;77.81
75317;BME280;63913;51.492;10.368;2023-03-15T08:45:49;98265.31;;;2.19;76.80
75317;BME280;63913;51.492;10.368;2023-03-15T08:48:15;98267.50;;;2.13;76.11
75317;BME280;63913;51.492;10.368;2023-03-15T08:50:40;98276.28;;;2.19;76.21
75317;BME280;63913;51.492;10.368;2023-03-15T08:53:06;98285.09;;;2.26;76.26
75317;BME280;63913;51.492;10.368;2023-03-15T08:55:32;98287.16;;;2.33;76.41
75317;BME280;63913;51.492;10.368;2023-03-15T08:57:57;98293.50;;;2.41;76.29
75317;BME280;63913;51.492;10.368;2023-03-15T09:00:25;98293.78;;;2.47;75.38
75317;BME280;63913;51.492;10.368;2023-03-15T09:02:52;98294.75;;;2.49;74.75
75317;BME280;63913;51.492;10.368;2023-03-15T09:05:18;98302.03;;;2.59;75.23
75317;BME280;63913;51.492;10.368;2023-03-15T09:07:44;98296.09;;;2.59;74.37
75317;BME280;63913;51.492;10.368;2023-03-15T09:10:11;98297.66;;;2.57;72.26
75317;BME280;63913;51.492;10.368;2023-03-15T09:12:44;98314.31;;;2.52;71.33
75317;BME280;63913;51.492;10.368;2023-03-15T09:15:10;98315.84;;;2.48;72.33
75317;BME280;63913;51.492;10.368;2023-03-15T09:17:39;98317.09;;;2.56;72.70
75317;BME280;63913;51.492;10.368;2023-03-15T09:20:06;98326.19;;;2.53;71.99
75317;BME280;63913;51.492;10.368;2023-03-15T09:22:36;98324.38;;;2.66;72.05
75317;BME280;63913;51.492;10.368;2023-03-15T09:25:01;98311.69;;;2.84;68.65
75317;BME280;63913;51.492;10.368;2023-03-15T09:27:31;98301.69;;;2.87;67.83
75317;BME280;63913;51.492;10.368;2023-03-15T09:29:57;98324.47;;;2.86;69.90
75317;BME280;63913;51.492;10.368;2023-03-15T09:32:22;98321.44;;;2.75;69.46
75317;BME280;63913;51.492;10.368;2023-03-15T09:34:48;98330.25;;;2.65;69.49
75317;BME280;63913;51.492;10.368;2023-03-15T09:37:14;98335.63;;;2.55;67.11
75317;BME280;63913;51.492;10.368;2023-03-15T09:39:39;98341.28;;;2.50;65.75
75317;BME280;63913;51.492;10.368;2023-03-15T09:42:15;98332.81;;;2.49;64.15
75317;BME280;63913;51.492;10.368;2023-03-15T09:44:53;98337.03;;;3.89;59.81
75317;BME280;63913;51.492;10.368;2023-03-15T09:52:48;98328.00;;;5.35;56.61
75317;BME280;63913;51.492;10.368;2023-03-15T09:55:21;98344.59;;;5.68;56.68
75317;BME280;63913;51.492;10.368;2023-03-15T09:57:51;98343.94;;;5.52;57.22
75317;BME280;63913;51.492;10.368;2023-03-15T10:00:26;98333.69;;;4.88;56.93
75317;BME280;63913;51.492;10.368;2023-03-15T10:02:57;98361.38;;;4.21;58.02
75317;BME280;63913;51.492;10.368;2023-03-15T10:08:38;98361.78;;;3.56;58.98
75317;BME280;63913;51.492;10.368;2023-03-15T10:11:11;98356.75;;;3.40;60.54
75317;BME280;63913;51.492;10.368;2023-03-15T10:19:31;98370.69;;;3.30;61.73
75317;BME280;63913;51.492;10.368;2023-03-15T10:27:40;98390.56;;;3.21;62.12
75317;BME280;63913;51.492;10.368;2023-03-15T10:30:23;98381.91;;;3.18;62.29
75317;BME280;63913;51.492;10.368;2023-03-15T10:35:37;98383.88;;;3.05;61.45
75317;BME280;63913;51.492;10.368;2023-03-15T10:38:13;98394.66;;;3.01;62.59
75317;BME280;63913;51.492;10.368;2023-03-15T10:40:46;98396.25;;;2.99;63.86
75317;BME280;63913;51.492;10.368;2023-03-15T10:43:19;98398.06;;;3.02;64.34
75317;BME280;63913;51.492;10.368;2023-03-15T10:46:02;98403.94;;;3.01;65.90
75317;BME280;63913;51.492;10.368;2023-03-15T10:48:30;98410.84;;;3.03;65.95
75317;BME280;63913;51.492;10.368;2023-03-15T10:50:56;98409.09;;;3.02;65.82
75317;BME280;63913;51.492;10.368;2023-03-15T10:53:25;98414.91;;;3.00;66.05
75317;BME280;63913;51.492;10.368;2023-03-15T10:56:20;98416.53;;;3.16;66.18
75317;BME280;63913;51.492;10.368;2023-03-15T10:58:47;98412.38;;;3.87;64.21
75317;BME280;63913;51.492;10.368;2023-03-15T11:01:23;98409.81;;;4.05;63.20
75317;BME280;63913;51.492;10.368;2023-03-15T11:04:00;98404.94;;;4.09;63.23
75317;BME280;63913;51.492;10.368;2023-03-15T11:06:39;98412.56;;;4.09;63.34
75317;BME280;63913;51.492;10.368;2023-03-15T11:09:11;98412.84;;;3.98;64.09
75317;BME280;63913;51.492;10.368;2023-03-15T11:11:59;98419.41;;;3.93;65.08
75317;BME280;63913;51.492;10.368;2023-03-15T11:14:33;98425.81;;;3.67;65.39
75317;BME280;63913;51.492;10.368;2023-03-15T11:17:00;98422.78;;;3.56;65.43
75317;BME280;63913;51.492;10.368;2023-03-15T11:19:27;98418.84;;;3.63;64.60
75317;BME280;63913;51.492;10.368;2023-03-15T11:21:54;98421.75;;;3.88;63.57
75317;BME280;63913;51.492;10.368;2023-03-15T11:24:31;98425.84;;;4.21;64.41
75317;BME280;63913;51.492;10.368;2023-03-15T11:27:02;98419.50;;;3.94;64.83
75317;BME280;63913;51.492;10.368;2023-03-15T11:29:30;98428.13;;;3.98;64.84
75317;BME280;63913;51.492;10.368;2023-03-15T11:31:59;98421.88;;;4.09;63.68
75317;BME280;63913;51.492;10.368;2023-03-15T11:37:15;98427.88;;;4.29;62.15
75317;BME280;63913;51.492;10.368;2023-03-15T11:39:46;98421.22;;;4.69;61.32
75317;BME280;63913;51.492;10.368;2023-03-15T11:42:21;98423.19;;;4.57;61.00
75317;BME280;63913;51.492;10.368;2023-03-15T11:44:51;98422.78;;;5.06;60.23
75317;BME280;63913;51.492;10.368;2023-03-15T11:47:56;98416.22;;;5.52;58.75
75317;BME280;63913;51.492;10.368;2023-03-15T11:50:22;98421.13;;;5.68;56.47
75317;BME280;63913;51.492;10.368;2023-03-15T11:52:50;98406.28;;;6.01;57.12
75317;BME280;63913;51.492;10.368;2023-03-15T11:55:25;98419.53;;;6.13;54.96
75317;BME280;63913;51.492;10.368;2023-03-15T11:57:52;98417.91;;;6.38;52.53
75317;BME280;63913;51.492;10.368;2023-03-15T12:02:50;98421.44;;;6.19;50.80
75317;BME280;63913;51.492;10.368;2023-03-15T12:05:58;98416.31;;;6.41;52.50
75317;BME280;63913;51.492;10.368;2023-03-15T12:11:10;98411.38;;;6.46;51.19
75317;BME280;63913;51.492;10.368;2023-03-15T12:13:36;98427.06;;;6.33;50.81
75317;BME280;63913;51.492;10.368;2023-03-15T12:16:05;98415.56;;;6.44;51.16
75317;BME280;63913;51.492;10.368;2023-03-15T12:18:41;98423.88;;;6.38;50.01
75317;BME280;63913;51.492;10.368;2023-03-15T12:21:19;98433.78;;;6.53;48.80
75317;BME280;63913;51.492;10.368;2023-03-15T12:24:04;98434.88;;;6.83;49.66
75317;BME280;63913;51.492;10.368;2023-03-15T12:26:39;98427.59;;;6.94;49.34
75317;BME280;63913;51.492;10.368;2023-03-15T12:29:16;98427.81;;;7.00;48.75
75317;BME280;63913;51.492;10.368;2023-03-15T12:31:47;98430.09;;;6.93;49.41
75317;BME280;63913;51.492;10.368;2023-03-15T12:34:22;98438.81;;;6.51;48.16
75317;BME280;63913;51.492;10.368;2023-03-15T12:36:50;98443.47;;;6.17;50.72
75317;BME280;63913;51.492;10.368;2023-03-15T12:41:47;98465.66;;;5.56;52.14
75317;BME280;63913;51.492;10.368;2023-03-15T12:44:24;98495.31;;;5.33;54.03
75317;BME280;63913;51.492;10.368;2023-03-15T12:52:08;98496.09;;;4.55;62.08
75317;BME280;63913;51.492;10.368;2023-03-15T12:54:44;98502.16;;;4.39;62.69
75317;BME280;63913;51.492;10.368;2023-03-15T12:57:12;98499.31;;;4.33;64.92
75317;BME280;63913;51.492;10.368;2023-03-15T12:59:47;98485.50;;;4.65;64.92
75317;BME280;63913;51.492;10.368;2023-03-15T13:02:46;98471.91;;;5.03;64.30
75317;BME280;63913;51.492;10.368;2023-03-15T13:10:24;98467.28;;;5.95;60.39
75317;BME280;63913;51.492;10.368;2023-03-15T13:15:56;98464.44;;;6.31;54.07
75317;BME280;63913;51.492;10.368;2023-03-15T13:18:25;98454.28;;;6.55;54.95
75317;BME280;63913;51.492;10.368;2023-03-15T13:21:18;98455.13;;;6.77;54.42
75317;BME280;63913;51.492;10.368;2023-03-15T13:23:51;98455.31;;;6.83;51.70
75317;BME280;63913;51.492;10.368;2023-03-15T13:26:44;98468.25;;;6.64;50.75
75317;BME280;63913;51.492;10.368;2023-03-15T13:29:20;98467.09;;;6.11;49.18
75317;BME280;63913;51.492;10.368;2023-03-15T13:31:59;98468.69;;;6.09;52.08
75317;BME280;63913;51.492;10.368;2023-03-15T13:34:27;98472.88;;;5.87;52.94
75317;BME280;63913;51.492;10.368;2023-03-15T13:36:57;98494.16;;;5.66;50.20
75317;BME280;63913;51.492;10.368;2023-03-15T13:39:33;98483.66;;;5.19;50.10
75317;BME280;63913;51.492;10.368;2023-03-15T13:42:16;98480.16;;;4.97;52.24
75317;BME280;63913;51.492;10.368;2023-03-15T13:44:42;98482.00;;;5.00;54.01
75317;BME280;63913;51.492;10.368;2023-03-15T13:47:07;98486.13;;;4.98;54.08
75317;BME280;63913;51.492;10.368;2023-03-15T13:49:33;98485.19;;;4.96;53.75
75317;BME280;63913;51.492;10.368;2023-03-15T13:52:01;98486.50;;;4.86;54.58
75317;BME280;63913;51.492;10.368;2023-03-15T13:54:29;98493.97;;;4.83;57.96
75317;BME280;63913;51.492;10.368;2023-03-15T13:57:02;98490.81;;;4.89;58.32
75317;BME280;63913;51.492;10.368;2023-03-15T13:59:35;98485.16;;;4.94;59.18
75317;BME280;63913;51.492;10.368;2023-03-15T14:02:03;98482.50;;;4.74;56.99
75317;BME280;63913;51.492;10.368;2023-03-15T14:04:34;98496.91;;;4.54;58.53
75317;BME280;63913;51.492;10.368;2023-03-15T14:07:08;98500.88;;;4.67;58.92
75317;BME280;63913;51.492;10.368;2023-03-15T14:09:42;98508.13;;;5.15;59.32